Terminal Aerodrome Forecast
Issued by NWS

Current Version | Previous Version | Text Only | Print | Product List | Glossary On
Versions: 1 2 3 4 5 6 7 8 9 10 11 12 13 14 15 16 17 18 19 20 21 22 23
000
FTUS43 KDLH 110500
TAFHYR
TAF
KHYR 110537Z 1106/1206 18006KT P6SM BKN120 WS020/19030KT
     FM110800 18007KT P6SM -SHRA VCTS SCT050CB BKN080 WS020/19035KT
      TEMPO 1108/1112 3SM -TSRA SCT035CB OVC050
     FM111400 19012KT P6SM SCT035 BKN100
     FM111800 20012KT P6SM VCSH SCT035 BKN080
     FM112100 20007KT P6SM VCTS SCT025CB BKN060
     FM120300 21003KT P6SM SCT080=

USA.gov is the U.S. government's official web portal to all federal, state and local government web resources and services.